Cambridge, IA (50046)

2:33 PM CST on January 31, 2015 (GMT -0600)
Tranquility Base | Change Station
CLOSE
Current Station
Personal Weather Station
Location: Maxwell, IA
Elevation: 902 ft
Nearby Weather Stations
Active Advisory: Winter Storm Warning

Elev 902 ft 41.89 °N, 93.40 °W | Updated 7 seconds ago

Rain
Rain
37.4 °F
Feels Like 37 °F
N
0.0
Wind Variable Wind from NNW

Today
High -- | Low -- °F
--% Chance of Precip.
Yesterday
High -- | Low -- °F
Precip. -- in
7:27 AM 5:27 PM
Waxing Gibbous, 91% visible
Pressure 30.10 in
Visibility 9.0 miles
Clouds Few 900 ft
Mostly Cloudy 1300 ft
Overcast 2500 ft
Windchill 37 °F
Dew Point 36 °F
Humidity 94%
Rainfall 0.00 in
Snow Depth Not available.
UV 1 out of 12
Pollen .10 out of 12
Air Quality Not available.
Flu Activity Not available.
SPECI KAMW 312023Z AUTO 22011KT 9SM UP FEW009 BKN013 OVC025 02/01 A3010 RMK AO2 UPB20 P0000 T00220006

More Conditions Fewer Conditions

Pressure 30.10 in
Visibility 9.0 miles
Clouds Few 900 ft
Mostly Cloudy 1300 ft
Overcast 2500 ft
Windchill 37 °F
Dew Point 36 °F
Humidity 94%
Rainfall 0.00 in
Snow Depth Not available.
UV 1 out of 12
Pollen .10 out of 12
Air Quality Not available.
Flu Activity Not available.
SPECI KAMW 312023Z AUTO 22011KT 9SM UP FEW009 BKN013 OVC025 02/01 A3010 RMK AO2 UPB20 P0000 T00220006

More Conditions Fewer Conditions

10-Day Weather Forecast

Almanac

Astronomy

Jan. 31, 2015 Rise Set
Actual Time
Civil Twilight
Nautical Twilight
Astronomical Twilight
Moon
Length of Visible Light
Length of Day
Tomorrow will be .
, % of the Moon is Illuminated

Today's Extremes

State Highs State Lows

Community

WunderPhotos

Upload Photos

1,792,184 photos uploaded!

WunderBlogs® & News

Nearby

Air Quality

  Air Quality AQ Index Pollutant
Not available.

Snow Depth

Station Depth Elevation

Earthquake Activity

City Distance Mag. Time & Date
Minimum magnitude displayed is 2.5.

Coastal Water Temperatures

Place Temperature

Nearby Weather Stations